Time;durP1;ratioP1;P1;durP2;ratioP2;P2;SDS_P1;SDS_P2;PMS_P1;PMS_P2;Temp;Humidity;BMP_temperature;BMP_pressure;BME280_temperature;BME280_humidity;BME280_pressure;Samples;Min_cycle;Max_cycle;Signal;HPM_P1;HPM_P2
2021/05/20 00:00:20;;;;;;;9.05;1.92;;;;;;;24.19;43.08;99100.97;4468088;32;33961;-59
2021/05/20 00:02:48;;;;;;;5.97;2.12;;;;;;;24.16;43.13;99094.13;4467843;32;34697;-58
2021/05/20 00:05:16;;;;;;;6.28;1.95;;;;;;;24.18;42.97;99094.69;4466716;32;33774;-59
2021/05/20 00:07:44;;;;;;;6.43;1.80;;;;;;;24.16;43.12;99087.88;4467906;32;33859;-59
2021/05/20 00:10:15;;;;;;;6.32;2.00;;;;;;;24.16;43.15;99096.84;4467858;32;33808;-59
2021/05/20 00:12:44;;;;;;;8.20;2.53;;;;;;;24.16;43.13;99094.13;4467918;32;33608;-57
2021/05/20 00:15:12;;;;;;;7.87;2.12;;;;;;;24.17;43.14;99092.22;4467928;32;33816;-59
2021/05/20 00:17:40;;;;;;;4.70;1.70;;;;;;;24.16;43.08;99088.69;4467783;32;33922;-58
2021/05/20 00:20:08;;;;;;;4.53;1.83;;;;;;;24.15;43.10;99088.91;4475578;32;33990;-59
2021/05/20 00:22:35;;;;;;;6.55;2.00;;;;;;;24.14;43.08;99088.09;4483746;32;33515;-59
2021/05/20 00:25:04;;;;;;;3.67;1.75;;;;;;;24.14;42.96;99084.53;4483372;32;33695;-59
2021/05/20 00:27:31;;;;;;;6.45;1.80;;;;;;;24.14;43.03;99087.28;4482870;32;33845;-59
2021/05/20 00:30:06;;;;;;;5.55;1.95;;;;;;;24.13;43.20;99094.63;4483272;32;34871;-59
2021/05/20 00:32:34;;;;;;;4.30;1.75;;;;;;;24.12;43.13;99092.97;4482109;32;33601;-58
2021/05/20 00:35:02;;;;;;;5.47;1.80;;;;;;;24.13;43.10;99091.06;4483352;32;33795;-59
2021/05/20 00:37:30;;;;;;;5.20;1.60;;;;;;;24.12;43.16;99083.97;4483032;32;34445;-57
2021/05/20 00:39:57;;;;;;;5.85;1.90;;;;;;;24.12;43.13;99086.69;4483494;32;34018;-59
2021/05/20 00:42:25;;;;;;;7.55;1.83;;;;;;;24.11;43.16;99085.87;4483231;32;33733;-59
2021/05/20 00:45:00;;;;;;;6.28;1.70;;;;;;;24.10;43.15;99092.38;4483042;32;35085;-58
2021/05/20 00:47:30;;;;;;;4.47;1.77;;;;;;;24.10;43.15;99086.94;4483246;32;34176;-59
2021/05/20 00:49:58;;;;;;;5.30;1.65;;;;;;;24.10;43.00;99086.09;4483109;32;35342;-58
2021/05/20 00:52:25;;;;;;;3.28;1.40;;;;;;;24.08;43.09;99086.37;4482947;32;34358;-58
2021/05/20 00:54:56;;;;;;;7.37;1.83;;;;;;;24.09;43.26;99090.72;4483330;32;33783;-58
2021/05/20 00:57:23;;;;;;;7.93;1.90;;;;;;;24.08;43.23;99085.53;4483212;32;34791;-58
2021/05/20 00:59:51;;;;;;;6.82;1.77;;;;;;;24.09;43.20;99093.47;4481783;32;33750;-59
2021/05/20 01:02:19;;;;;;;6.28;2.12;;;;;;;24.07;43.22;99089.34;4481629;32;33478;-58
2021/05/20 01:04:47;;;;;;;7.35;1.65;;;;;;;24.06;43.23;99083.06;4482793;32;34364;-59
2021/05/20 01:07:15;;;;;;;6.97;1.90;;;;;;;24.07;43.21;99089.34;4482753;32;33644;-58
2021/05/20 01:09:43;;;;;;;5.55;1.73;;;;;;;24.06;43.24;99091.25;4482788;32;34088;-57
2021/05/20 01:12:10;;;;;;;6.45;1.60;;;;;;;24.06;43.23;99093.13;4482661;32;33709;-59
2021/05/20 01:14:39;;;;;;;9.68;1.60;;;;;;;24.06;43.19;99093.13;4480916;32;34838;-60
2021/05/20 01:17:06;;;;;;;5.65;1.60;;;;;;;24.05;43.18;99086.84;4482762;32;33840;-60
2021/05/20 01:19:35;;;;;;;4.30;2.08;;;;;;;24.05;43.19;99095.03;4482615;32;33762;-59
2021/05/20 01:22:04;;;;;;;5.05;1.60;;;;;;;24.05;43.20;99094.19;4482685;32;33551;-60
2021/05/20 01:24:32;;;;;;;5.50;1.70;;;;;;;24.05;43.18;99107.81;4482676;32;33676;-60
2021/05/20 01:27:01;;;;;;;5.03;1.75;;;;;;;24.04;43.20;99098.00;4482528;32;34512;-60
2021/05/20 01:29:29;;;;;;;4.73;1.80;;;;;;;24.04;43.19;99101.56;4481232;32;34020;-60
2021/05/20 01:31:57;;;;;;;5.03;1.85;;;;;;;24.05;43.14;99103.19;4482503;32;33549;-59
2021/05/20 01:34:24;;;;;;;5.25;1.50;;;;;;;24.04;43.17;99093.37;4482479;32;35072;-60
2021/05/20 01:36:52;;;;;;;5.18;1.65;;;;;;;24.04;43.21;99095.28;4482516;32;33888;-59
2021/05/20 01:39:20;;;;;;;4.00;1.70;;;;;;;24.03;43.21;99102.63;4482509;32;35038;-60
2021/05/20 01:41:47;;;;;;;4.18;1.65;;;;;;;24.03;43.26;99094.47;4484574;32;33285;-59
2021/05/20 01:44:16;;;;;;;2.55;1.10;;;;;;;24.02;43.26;99092.81;4484841;32;33871;-59
2021/05/20 01:46:43;;;;;;;7.15;1.90;;;;;;;24.01;43.29;99085.69;4484871;32;33900;-61
2021/05/20 01:49:11;;;;;;;3.50;1.70;;;;;;;24.01;43.30;99080.25;4484571;32;34743;-60
2021/05/20 01:51:39;;;;;;;2.47;1.45;;;;;;;24.01;43.32;99090.31;4484833;32;33282;-60
2021/05/20 01:54:07;;;;;;;4.35;1.60;;;;;;;24.01;43.34;99085.69;4484809;32;33747;-58
2021/05/20 01:56:36;;;;;;;4.50;1.40;;;;;;;24.02;43.28;99086.53;4484618;32;33968;-60
2021/05/20 01:59:04;;;;;;;3.72;1.55;;;;;;;24.00;43.36;99094.94;4484663;32;33998;-59
2021/05/20 02:01:33;;;;;;;3.53;1.33;;;;;;;24.00;43.41;99094.94;4484927;32;33659;-59
2021/05/20 02:04:01;;;;;;;3.08;1.60;;;;;;;24.00;43.46;99089.50;4484395;32;33960;-60
2021/05/20 02:06:28;;;;;;;6.93;1.90;;;;;;;24.00;43.43;99096.84;4484657;32;34728;-60
2021/05/20 02:09:00;;;;;;;5.22;1.80;;;;;;;24.00;43.44;99094.94;4484336;32;34018;-59
2021/05/20 02:11:28;;;;;;;5.28;1.73;;;;;;;24.00;43.40;99097.66;4484653;32;34405;-59
2021/05/20 02:13:55;;;;;;;4.50;1.70;;;;;;;23.99;43.38;99101.47;4484586;32;34576;-58
2021/05/20 02:16:23;;;;;;;4.93;1.70;;;;;;;23.99;43.39;99106.94;4484400;32;34240;-60
2021/05/20 02:18:51;;;;;;;3.87;1.70;;;;;;;23.99;43.46;99106.09;4484504;32;34005;-60
2021/05/20 02:21:18;;;;;;;5.05;1.80;;;;;;;23.99;43.55;99101.47;4484610;32;33249;-60
2021/05/20 02:23:46;;;;;;;3.00;1.30;;;;;;;23.98;43.38;99108.00;4484380;32;34694;-60
2021/05/20 02:26:15;;;;;;;4.82;1.50;;;;;;;23.99;43.36;99111.56;4484886;32;33816;-59
2021/05/20 02:28:42;;;;;;;3.35;1.50;;;;;;;23.98;43.39;99116.19;4484457;32;34239;-59
2021/05/20 02:31:10;;;;;;;4.07;1.58;;;;;;;23.98;43.39;99118.91;4484292;32;33533;-59
2021/05/20 02:33:40;;;;;;;3.03;1.40;;;;;;;23.98;43.42;99116.19;4484481;32;33668;-59
2021/05/20 02:36:08;;;;;;;4.32;1.58;;;;;;;23.99;43.42;99119.72;4484494;32;34626;-60
2021/05/20 02:38:36;;;;;;;4.53;1.60;;;;;;;23.99;43.44;99127.91;4484138;32;35119;-59
2021/05/20 02:41:04;;;;;;;4.43;1.52;;;;;;;23.98;43.44;99127.09;4484461;32;34229;-59
2021/05/20 02:43:32;;;;;;;4.05;1.60;;;;;;;23.99;43.24;99136.06;4484289;32;33907;-59
2021/05/20 02:46:01;;;;;;;4.43;1.85;;;;;;;23.97;43.40;99139.06;4484402;32;33967;-60
2021/05/20 02:48:28;;;;;;;4.20;1.67;;;;;;;23.98;43.49;99142.59;4484274;32;34363;-59
2021/05/20 02:50:56;;;;;;;3.15;1.58;;;;;;;23.98;43.47;99148.06;4484135;32;33457;-60
2021/05/20 02:53:23;;;;;;;5.43;1.65;;;;;;;23.97;43.44;99147.22;4484164;32;34811;-60
2021/05/20 02:55:51;;;;;;;5.12;1.65;;;;;;;23.96;43.41;99153.72;4484305;32;34789;-59
2021/05/20 02:58:20;;;;;;;6.18;1.50;;;;;;;23.97;43.41;99151.81;4484188;32;34085;-60
2021/05/20 03:00:48;;;;;;;3.40;1.30;;;;;;;23.96;43.38;99147.47;4484123;32;33477;-60
2021/05/20 03:03:16;;;;;;;3.90;1.37;;;;;;;23.96;43.40;99145.56;4484106;32;34845;-60
2021/05/20 03:05:43;;;;;;;3.03;1.30;;;;;;;23.97;43.44;99151.81;4484290;32;34458;-60
2021/05/20 03:08:11;;;;;;;5.15;1.10;;;;;;;23.95;43.37;99156.72;4484001;32;34220;-59
2021/05/20 03:10:39;;;;;;;2.87;1.33;;;;;;;23.96;43.25;99155.63;4483985;32;34277;-59
2021/05/20 03:13:07;;;;;;;3.72;1.37;;;;;;;23.95;43.22;99154.00;4484200;32;33650;-59
2021/05/20 03:15:35;;;;;;;6.57;1.50;;;;;;;23.96;43.30;99164.63;4484046;32;34786;-59
2021/05/20 03:18:02;;;;;;;5.47;1.55;;;;;;;23.95;43.45;99160.25;4484185;32;34754;-59
2021/05/20 03:20:30;;;;;;;4.20;1.45;;;;;;;23.94;43.54;99166.78;4484029;32;33476;-56
2021/05/20 03:22:57;;;;;;;4.80;1.55;;;;;;;23.94;43.55;99169.50;4484089;32;34982;-60
2021/05/20 03:25:25;;;;;;;3.17;1.35;;;;;;;23.93;43.53;99173.31;4483970;32;33953;-60
2021/05/20 03:27:53;;;;;;;3.75;1.42;;;;;;;23.94;43.51;99172.25;4484118;32;34964;-59
2021/05/20 03:30:21;;;;;;;5.30;1.40;;;;;;;23.93;43.54;99170.59;4484243;32;32835;-60
2021/05/20 03:32:48;;;;;;;5.37;1.45;;;;;;;23.93;43.51;99176.88;4484016;32;34299;-59
2021/05/20 03:35:16;;;;;;;6.80;1.70;;;;;;;23.93;43.52;99178.75;4484036;32;33655;-60
2021/05/20 03:37:44;;;;;;;7.00;1.75;;;;;;;23.93;43.58;99176.03;4483772;32;33777;-60
2021/05/20 03:40:12;;;;;;;3.67;1.40;;;;;;;23.92;43.48;99185.25;4484073;32;34222;-59
2021/05/20 03:42:39;;;;;;;7.95;1.50;;;;;;;23.92;43.46;99197.00;4483931;32;33896;-60
2021/05/20 03:45:07;;;;;;;3.33;1.40;;;;;;;23.91;43.50;99189.88;4483940;32;34403;-60
2021/05/20 03:47:35;;;;;;;6.05;1.60;;;;;;;23.92;43.56;99193.44;4483776;32;34675;-60
2021/05/20 03:50:03;;;;;;;3.15;1.33;;;;;;;23.91;43.51;99194.50;4483695;32;33517;-57
2021/05/20 03:52:31;;;;;;;5.07;1.98;;;;;;;23.90;43.56;99188.25;4483942;32;33641;-59
2021/05/20 03:54:58;;;;;;;3.92;1.42;;;;;;;23.90;43.51;99195.59;4483879;32;33935;-59
2021/05/20 03:57:26;;;;;;;3.50;1.20;;;;;;;23.89;43.56;99197.50;4483932;32;34010;-60
2021/05/20 03:59:54;;;;;;;4.75;1.42;;;;;;;23.89;43.54;99208.37;4483797;32;34375;-60
2021/05/20 04:02:22;;;;;;;3.65;1.20;;;;;;;23.90;43.44;99212.75;4482998;32;33827;-58
2021/05/20 04:04:50;;;;;;;3.67;1.52;;;;;;;23.90;43.32;99211.94;4483485;32;33554;-59
2021/05/20 04:07:17;;;;;;;8.00;1.30;;;;;;;23.90;43.27;99210.03;4483765;32;34118;-60
2021/05/20 04:09:45;;;;;;;3.83;1.20;;;;;;;23.89;43.40;99216.56;4483530;32;34350;-60
2021/05/20 04:12:12;;;;;;;4.70;2.05;;;;;;;23.89;43.51;99219.28;4483541;32;33811;-59
2021/05/20 04:14:40;;;;;;;2.30;1.10;;;;;;;23.90;43.40;99220.12;4483728;32;34933;-60
2021/05/20 04:17:08;;;;;;;4.00;1.30;;;;;;;23.88;43.47;99217.63;4483639;32;34984;-59
2021/05/20 04:19:35;;;;;;;2.83;1.42;;;;;;;23.90;43.62;99225.56;4483345;32;33444;-60
2021/05/20 04:22:03;;;;;;;4.72;1.37;;;;;;;23.88;43.57;99230.44;4483588;32;33848;-60
2021/05/20 04:24:30;;;;;;;3.30;1.50;;;;;;;23.88;43.59;99227.72;4483568;32;33799;-59
2021/05/20 04:26:58;;;;;;;4.07;1.83;;;;;;;23.88;43.63;99235.88;4483430;32;33999;-59
2021/05/20 04:29:26;;;;;;;4.30;1.40;;;;;;;23.89;43.42;99229.38;4480210;32;34133;-59
2021/05/20 04:31:53;;;;;;;3.10;1.70;;;;;;;23.89;43.39;99232.09;4478966;32;32776;-57
2021/05/20 04:34:21;;;;;;;2.72;1.20;;;;;;;23.88;43.53;99234.00;4483259;32;34940;-59
2021/05/20 04:36:49;;;;;;;6.95;1.60;;;;;;;23.88;43.50;99230.44;4482417;32;33791;-58
2021/05/20 04:39:16;;;;;;;2.95;1.67;;;;;;;23.87;43.53;99245.94;4473024;32;33400;-58
2021/05/20 04:41:44;;;;;;;2.33;1.30;;;;;;;23.86;43.58;99246.19;4482832;32;33780;-58
2021/05/20 04:44:11;;;;;;;4.93;1.23;;;;;;;23.86;43.58;99249.72;4483125;32;33860;-57
2021/05/20 04:46:39;;;;;;;6.10;1.70;;;;;;;23.86;43.59;99263.34;4473814;32;34103;-58
2021/05/20 04:49:13;;;;;;;2.05;1.20;;;;;;;23.87;43.65;99264.19;4467376;32;33180;-56
2021/05/20 04:51:44;;;;;;;3.55;1.40;;;;;;;23.86;43.63;99263.34;4467709;32;34200;-58
2021/05/20 04:54:11;;;;;;;2.95;1.30;;;;;;;23.86;43.62;99268.81;4467385;32;34634;-58
2021/05/20 04:56:39;;;;;;;3.78;1.48;;;;;;;23.85;43.54;99272.59;4480225;32;34732;-57
2021/05/20 04:59:06;;;;;;;4.55;1.40;;;;;;;23.85;43.50;99283.50;4483218;32;33279;-58
2021/05/20 05:01:34;;;;;;;2.92;1.12;;;;;;;23.84;43.46;99270.97;4482952;32;34169;-58
2021/05/20 05:04:02;;;;;;;3.10;1.40;;;;;;;23.84;43.43;99283.75;4482886;32;34396;-59
2021/05/20 05:06:29;;;;;;;3.87;1.60;;;;;;;23.84;43.42;99281.84;4482897;32;34727;-58
2021/05/20 05:08:57;;;;;;;4.53;1.77;;;;;;;23.83;43.39;99276.66;4482820;32;33599;-58
2021/05/20 05:11:25;;;;;;;18.62;5.15;;;;;;;23.82;43.37;99283.97;4482689;32;33162;-56
2021/05/20 05:13:52;;;;;;;13.80;3.97;;;;;;;23.83;41.86;99293.84;4481748;32;33943;-56
2021/05/20 05:16:20;;;;;;;14.82;3.35;;;;;;;23.77;42.24;99296.66;4484880;32;34159;-59
2021/05/20 05:18:47;;;;;;;11.55;2.53;;;;;;;23.74;42.50;99294.44;4483836;32;34248;-59
2021/05/20 05:21:15;;;;;;;15.68;3.00;;;;;;;23.73;42.46;99292.78;4484843;32;34511;-59
2021/05/20 05:23:44;;;;;;;11.00;3.50;;;;;;;23.72;42.59;99296.56;4482947;32;33903;-59
2021/05/20 05:26:12;;;;;;;18.10;4.25;;;;;;;23.71;42.62;99298.47;4483925;32;34726;-60
2021/05/20 05:28:39;;;;;;;22.10;3.62;;;;;;;23.71;42.54;99292.19;4485130;32;33571;-59
2021/05/20 05:31:09;;;;;;;18.40;3.17;;;;;;;23.71;42.51;99292.19;4484674;32;33914;-59
2021/05/20 05:33:37;;;;;;;12.10;2.67;;;;;;;23.70;42.51;99302.28;4483949;32;34714;-59
2021/05/20 05:36:04;;;;;;;14.93;3.40;;;;;;;23.71;42.49;99297.66;4484865;32;34133;-60
2021/05/20 05:38:33;;;;;;;11.40;2.97;;;;;;;23.70;42.51;99301.44;4484620;32;33547;-59
2021/05/20 05:41:00;;;;;;;10.32;2.50;;;;;;;23.69;42.51;99303.34;4484990;32;33997;-60
2021/05/20 05:43:28;;;;;;;15.00;2.58;;;;;;;23.68;42.52;99305.22;4484918;32;33702;-60
2021/05/20 05:45:56;;;;;;;9.02;2.85;;;;;;;23.68;42.54;99316.09;4484441;32;34047;-61
2021/05/20 05:48:23;;;;;;;10.35;2.53;;;;;;;23.67;42.53;99314.47;4484728;32;34614;-61
2021/05/20 05:50:53;;;;;;;8.38;2.50;;;;;;;23.67;42.54;99314.47;4484607;32;33051;-60
2021/05/20 05:53:29;;;;;;;8.27;2.35;;;;;;;23.66;42.53;99311.97;4484531;32;33764;-61
2021/05/20 05:55:57;;;;;;;11.12;2.47;;;;;;;23.66;42.53;99303.81;4484625;32;33804;-60
2021/05/20 05:58:25;;;;;;;15.95;3.25;;;;;;;23.66;42.53;99304.62;4484767;32;34387;-60
2021/05/20 06:00:54;;;;;;;12.05;2.72;;;;;;;23.66;42.53;99307.34;4484749;32;33879;-58
2021/05/20 06:03:22;;;;;;;6.93;2.30;;;;;;;23.64;42.54;99309.50;4484706;32;34875;-60
2021/05/20 06:05:50;;;;;;;10.63;2.30;;;;;;;23.65;42.54;99316.59;4484257;32;34071;-60
2021/05/20 06:08:17;;;;;;;7.75;2.62;;;;;;;23.65;42.54;99313.06;4484731;32;34460;-60
2021/05/20 06:10:45;;;;;;;6.93;1.98;;;;;;;23.64;42.55;99308.66;4484819;32;33868;-58
2021/05/20 06:13:13;;;;;;;5.30;2.28;;;;;;;23.64;42.54;99314.97;4484544;32;33877;-60
2021/05/20 06:15:41;;;;;;;7.47;2.22;;;;;;;23.63;42.54;99315.13;4484422;32;33819;-58
2021/05/20 06:18:09;;;;;;;6.50;2.12;;;;;;;23.62;42.54;99319.75;4484364;32;33590;-60
2021/05/20 06:20:37;;;;;;;5.82;2.03;;;;;;;23.63;42.54;99320.59;4484520;32;34534;-60
2021/05/20 06:23:06;;;;;;;5.80;2.00;;;;;;;23.62;42.54;99319.75;4484537;32;33884;-61
2021/05/20 06:25:33;;;;;;;7.78;2.10;;;;;;;23.63;42.54;99331.47;4484065;32;34104;-60
2021/05/20 06:28:07;;;;;;;7.95;2.30;;;;;;;23.63;42.52;99334.22;4484390;32;33522;-60
2021/05/20 06:30:35;;;;;;;9.27;2.00;;;;;;;23.62;42.54;99336.09;4484370;32;34885;-59
2021/05/20 06:33:03;;;;;;;6.97;2.00;;;;;;;23.61;42.53;99339.09;4484519;32;34657;-61
2021/05/20 06:35:30;;;;;;;6.28;2.03;;;;;;;23.61;42.53;99339.09;4484285;32;35159;-59
2021/05/20 06:37:58;;;;;;;8.38;2.30;;;;;;;23.59;42.53;99322.97;4484043;32;34283;-60
2021/05/20 06:40:26;;;;;;;5.55;2.22;;;;;;;23.60;42.53;99327.34;4484270;32;34662;-60
2021/05/20 06:42:53;;;;;;;8.27;1.92;;;;;;;23.60;42.53;99329.25;4483849;32;33534;-58
2021/05/20 06:45:21;;;;;;;7.43;2.47;;;;;;;23.59;42.51;99328.41;4484119;32;34247;-59
2021/05/20 06:47:55;;;;;;;7.03;1.90;;;;;;;23.58;42.51;99329.47;4484005;32;33748;-59
2021/05/20 06:50:23;;;;;;;9.07;2.35;;;;;;;23.59;42.54;99320.22;4483961;32;33844;-57
2021/05/20 06:52:53;;;;;;;5.78;1.80;;;;;;;23.57;42.53;99325.09;4482824;32;34797;-58
2021/05/20 06:55:21;;;;;;;6.55;2.12;;;;;;;23.57;42.53;99325.09;4484147;32;34232;-58
2021/05/20 07:00:36;;;;;;;7.62;2.00;;;;;;;23.57;42.52;99336.00;4483639;32;34519;-59
2021/05/20 07:03:14;;;;;;;7.28;2.25;;;;;;;23.56;42.54;99331.63;4480137;32;35000;-58
2021/05/20 07:05:41;;;;;;;4.47;2.08;;;;;;;23.56;42.54;99334.34;4481632;32;34510;-58
2021/05/20 07:08:11;;;;;;;8.82;1.92;;;;;;;23.56;42.51;99342.53;4481017;32;33751;-54
2021/05/20 07:10:39;;;;;;;5.62;2.00;;;;;;;23.56;42.52;99339.78;4458037;32;34322;-54
2021/05/20 07:13:06;;;;;;;7.15;2.00;;;;;;;23.57;42.50;99346.06;4484189;32;33687;-57
2021/05/20 07:15:34;;;;;;;7.12;1.80;;;;;;;23.55;42.50;99349.03;4484057;32;34104;-57
2021/05/20 07:18:01;;;;;;;4.53;1.65;;;;;;;23.55;42.52;99361.81;4484164;32;33452;-56
2021/05/20 07:20:29;;;;;;;4.55;1.98;;;;;;;23.56;42.52;99366.19;4480056;32;33885;-59
2021/05/20 07:22:57;;;;;;;5.22;2.12;;;;;;;23.55;42.52;99359.94;4468366;32;34582;-55
2021/05/20 07:25:24;;;;;;;7.22;2.28;;;;;;;23.56;42.52;99363.47;4468390;32;34000;-58
2021/05/20 07:27:52;;;;;;;6.85;2.25;;;;;;;23.55;42.50;99365.38;4468491;32;33669;-59
2021/05/20 07:30:20;;;;;;;6.18;4.22;;;;;;;23.55;42.52;99367.25;4468198;32;34134;-58
2021/05/20 07:32:47;;;;;;;9.80;5.07;;;;;;;23.62;41.44;99368.78;4468334;32;33550;-57
2021/05/20 07:35:15;;;;;;;8.40;6.07;;;;;;;23.56;40.79;99361.59;4473683;32;34082;-57
2021/05/20 07:37:43;;;;;;;7.60;6.07;;;;;;;23.50;40.68;99373.44;4482584;32;34278;-56
2021/05/20 07:40:11;;;;;;;8.82;6.37;;;;;;;23.48;40.25;99370.09;4483856;32;34796;-59
2021/05/20 07:42:39;;;;;;;8.73;7.05;;;;;;;23.41;40.14;99381.13;4483362;32;33833;-57
2021/05/20 07:45:08;;;;;;;8.63;7.40;;;;;;;23.41;40.02;99374.84;4483884;32;34061;-58
2021/05/20 07:47:35;;;;;;;9.63;7.28;;;;;;;23.36;39.94;99388.31;4483921;32;34604;-59
2021/05/20 07:50:04;;;;;;;11.05;7.03;;;;;;;23.28;40.01;99389.50;4483944;32;33072;-59
2021/05/20 07:52:32;;;;;;;11.90;7.32;;;;;;;23.27;40.07;99387.00;4483802;32;33577;-58
2021/05/20 07:54:59;;;;;;;11.70;7.78;;;;;;;23.23;40.07;99388.56;4468104;32;35097;-58
2021/05/20 07:57:27;;;;;;;9.32;6.78;;;;;;;23.18;40.33;99394.72;4473387;32;32814;-55
2021/05/20 07:59:55;;;;;;;7.45;5.80;;;;;;;23.13;40.72;99394.59;4470115;32;34806;-56
2021/05/20 08:05:34;;;;;;;6.97;4.05;;;;;;;23.23;40.59;99405.72;4469314;32;33956;-54
2021/05/20 08:10:48;;;;;;;7.60;3.45;;;;;;;23.60;40.31;99406.34;4476216;32;33842;-59
2021/05/20 08:13:16;;;;;;;5.82;3.30;;;;;;;23.82;40.19;99411.19;4467865;32;33711;-59
2021/05/20 08:15:44;;;;;;;6.53;3.22;;;;;;;23.97;40.00;99413.44;4468075;32;33979;-59
2021/05/20 08:18:11;;;;;;;6.93;3.05;;;;;;;24.09;39.89;99417.78;4467944;32;33585;-60
2021/05/20 08:20:39;;;;;;;6.65;3.47;;;;;;;24.19;39.73;99414.47;4467840;32;33948;-60
2021/05/20 08:23:06;;;;;;;5.70;3.37;;;;;;;24.28;39.64;99420.38;4473887;32;33854;-60
2021/05/20 08:25:34;;;;;;;7.28;3.35;;;;;;;24.36;39.50;99418.12;4474752;32;35060;-60
2021/05/20 08:28:03;;;;;;;6.68;3.03;;;;;;;24.42;39.42;99421.78;4467669;32;34581;-57
2021/05/20 08:30:31;;;;;;;5.53;3.83;;;;;;;24.47;39.37;99426.50;4477228;32;33764;-60
2021/05/20 08:32:59;;;;;;;5.85;3.25;;;;;;;24.51;39.28;99427.69;4483374;32;33830;-59
2021/05/20 08:35:26;;;;;;;6.75;3.20;;;;;;;24.55;39.28;99434.31;4476986;32;34968;-60
2021/05/20 08:37:54;;;;;;;8.55;3.72;;;;;;;24.54;39.25;99425.31;4467427;32;33577;-60
2021/05/20 08:40:22;;;;;;;6.80;3.35;;;;;;;24.57;39.25;99426.69;4467704;32;33671;-59
2021/05/20 08:42:49;;;;;;;6.50;3.35;;;;;;;24.59;39.21;99435.47;4467530;32;34540;-59
2021/05/20 08:45:19;;;;;;;5.72;3.28;;;;;;;24.60;39.25;99439.88;4467617;32;34177;-60
2021/05/20 08:47:47;;;;;;;7.03;2.97;;;;;;;24.59;39.28;99449.94;4467573;32;33401;-60
2021/05/20 08:50:16;;;;;;;6.22;3.30;;;;;;;24.60;39.27;99454.31;4468734;32;34509;-60
2021/05/20 08:52:44;;;;;;;6.72;3.25;;;;;;;24.58;39.30;99456.47;4469289;32;33867;-60
2021/05/20 08:55:16;;;;;;;6.50;3.37;;;;;;;24.57;39.33;99464.88;4469447;32;34818;-60
2021/05/20 08:57:44;;;;;;;7.45;3.45;;;;;;;24.58;39.39;99464.66;4475433;32;33551;-59
2021/05/20 09:00:14;;;;;;;5.07;2.80;;;;;;;24.57;39.37;99462.16;4481204;32;34607;-60
2021/05/20 09:02:41;;;;;;;7.00;3.60;;;;;;;24.54;39.43;99465.38;4484691;32;33858;-61
2021/05/20 09:05:15;;;;;;;4.82;3.00;;;;;;;24.53;39.44;99466.44;4471767;32;34110;-59
2021/05/20 09:07:47;;;;;;;7.07;3.28;;;;;;;24.51;39.50;99455.78;4482211;32;34580;-61
2021/05/20 09:10:22;;;;;;;5.40;3.30;;;;;;;24.50;39.52;99451.41;4476797;32;33902;-59
2021/05/20 09:12:56;;;;;;;5.53;3.50;;;;;;;24.46;39.59;99452.94;4479597;32;33624;-58
2021/05/20 09:15:32;;;;;;;5.60;2.92;;;;;;;24.45;39.70;99453.19;4483402;32;34028;-61
2021/05/20 09:18:12;;;;;;;5.15;3.28;;;;;;;24.42;39.75;99457.22;4485062;32;34021;-60
2021/05/20 09:20:44;;;;;;;7.07;3.70;;;;;;;24.42;39.75;99447.16;4484799;32;35130;-60
2021/05/20 09:23:14;;;;;;;7.12;3.62;;;;;;;24.38;39.83;99445.97;4485074;32;33661;-61
2021/05/20 09:25:42;;;;;;;8.10;3.50;;;;;;;24.35;39.93;99445.63;4484765;32;33957;-60
2021/05/20 09:28:10;;;;;;;6.28;3.22;;;;;;;24.33;40.01;99450.47;4484763;32;33331;-60
2021/05/20 09:30:42;;;;;;;6.40;3.90;;;;;;;24.33;40.03;99445.00;4484628;32;34821;-62
2021/05/20 09:33:11;;;;;;;5.20;3.05;;;;;;;24.28;40.08;99453.91;4484675;32;34643;-61
2021/05/20 09:35:46;;;;;;;6.40;3.53;;;;;;;24.28;40.09;99450.34;4484941;32;33981;-61
2021/05/20 09:38:20;;;;;;;5.62;3.58;;;;;;;24.26;40.12;99450.59;4484636;32;34572;-61
2021/05/20 09:40:54;;;;;;;6.55;3.30;;;;;;;24.24;40.16;99447.28;4479931;32;34905;-58
2021/05/20 09:43:32;;;;;;;6.65;3.75;;;;;;;24.21;40.28;99445.03;4482061;32;34599;-60
2021/05/20 09:46:16;;;;;;;6.22;3.78;;;;;;;24.19;40.25;99441.72;4484843;32;34009;-60
2021/05/20 09:48:45;;;;;;;7.22;4.18;;;;;;;24.16;40.31;99437.59;4483184;31;34366;-61
2021/05/20 09:51:26;;;;;;;7.55;4.45;;;;;;;24.12;40.36;99441.84;4484758;32;33758;-60
2021/05/20 09:53:55;;;;;;;6.85;4.32;;;;;;;24.13;40.39;99448.97;4483434;31;34643;-61
2021/05/20 09:56:39;;;;;;;7.32;4.85;;;;;;;24.09;40.41;99442.31;4480836;31;34055;-59
2021/05/20 09:59:11;;;;;;;7.80;4.32;;;;;;;24.06;40.55;99445.56;4479362;32;34529;-58
2021/05/20 10:01:40;;;;;;;7.05;4.10;;;;;;;24.03;40.50;99443.28;4482111;32;34788;-61
2021/05/20 10:04:08;;;;;;;6.73;4.13;;;;;;;24.01;40.50;99439.13;4481277;31;33755;-60
2021/05/20 10:06:36;;;;;;;8.43;4.18;;;;;;;23.99;40.52;99447.56;4476569;32;33940;-60
2021/05/20 10:09:05;;;;;;;8.13;4.30;;;;;;;23.98;40.55;99445.91;4483138;32;34513;-59
2021/05/20 10:11:33;;;;;;;5.70;4.28;;;;;;;23.99;40.54;99452.19;4476214;32;33747;-60
2021/05/20 10:14:04;;;;;;;6.82;4.03;;;;;;;23.95;40.59;99451.00;4480262;32;33892;-59
2021/05/20 10:16:32;;;;;;;;;;;;;;;23.96;40.62;99445.31;4481866;32;34502;-59
2021/05/20 10:18:59;;;;;;;6.37;4.50;;;;;;;24.05;40.45;99440.31;4484564;32;33579;-59
2021/05/20 10:21:29;;;;;;;5.93;4.60;;;;;;;23.96;40.54;99447.19;4481969;32;33760;-60
2021/05/20 10:23:57;;;;;;;6.95;4.40;;;;;;;23.93;40.55;99453.97;4474530;32;32562;-60
2021/05/20 10:26:25;;;;;;;6.07;4.55;;;;;;;23.93;40.56;99443.06;4484213;32;34797;-59
2021/05/20 10:28:52;;;;;;;6.57;4.78;;;;;;;23.91;40.59;99446.03;4482785;32;33206;-60
2021/05/20 10:31:20;;;;;;;8.38;4.72;;;;;;;23.88;40.67;99438.34;4476000;32;34544;-60
2021/05/20 10:33:48;;;;;;;7.47;4.95;;;;;;;23.87;40.63;99439.38;4463346;32;33924;-60
2021/05/20 10:36:25;;;;;;;6.75;4.50;;;;;;;23.85;40.68;99437.97;4482725;32;34227;-61
2021/05/20 10:38:53;;;;;;;7.37;4.65;;;;;;;23.84;40.73;99425.44;4484103;32;34465;-61
2021/05/20 10:41:23;;;;;;;7.95;4.72;;;;;;;23.86;40.64;99428.72;4484318;32;33973;-60
2021/05/20 10:43:56;;;;;;;6.53;4.65;;;;;;;23.83;40.67;99437.41;4484073;32;34074;-61
2021/05/20 10:46:24;;;;;;;7.40;5.18;;;;;;;23.83;40.57;99438.22;4484079;32;34065;-61
2021/05/20 10:48:52;;;;;;;6.72;4.53;;;;;;;23.82;40.59;99449.34;4484271;32;33608;-55
2021/05/20 10:51:21;;;;;;;8.82;4.62;;;;;;;23.82;40.55;99444.72;4484017;32;34879;-57
2021/05/20 10:54:04;;;;;;;5.70;4.55;;;;;;;23.83;40.54;99438.22;4484197;32;34707;-58
2021/05/20 10:56:32;;;;;;;6.05;4.60;;;;;;;23.87;40.46;99438.56;4484147;32;34165;-58
2021/05/20 10:59:00;;;;;;;6.30;4.10;;;;;;;23.84;40.59;99433.59;4484213;32;33523;-58
2021/05/20 11:01:30;;;;;;;5.50;3.85;;;;;;;23.87;40.61;99446.72;4484218;32;33732;-59
2021/05/20 11:04:09;;;;;;;6.62;3.40;;;;;;;23.95;40.57;99446.38;4483833;32;34704;-59
2021/05/20 11:06:43;;;;;;;6.87;3.75;;;;;;;24.07;40.47;99441.75;4484440;32;34022;-58
2021/05/20 11:09:11;;;;;;;4.97;3.00;;;;;;;24.25;40.30;99445.37;4484276;32;34961;-57
2021/05/20 11:11:39;;;;;;;6.50;3.15;;;;;;;24.40;40.13;99443.84;4483995;32;33833;-58
2021/05/20 11:14:12;;;;;;;4.97;2.78;;;;;;;24.57;39.92;99437.59;4483910;32;35307;-58
2021/05/20 11:16:44;;;;;;;5.60;3.00;;;;;;;24.72;39.72;99434.38;4484011;32;34154;-59
2021/05/20 11:19:20;;;;;;;6.20;2.87;;;;;;;24.84;39.58;99438.69;4484416;32;33773;-59
2021/05/20 11:22:01;;;;;;;6.25;3.03;;;;;;;24.98;39.39;99428.28;4484155;32;34537;-58
2021/05/20 11:24:29;;;;;;;6.12;2.90;;;;;;;25.12;39.23;99426.94;4483904;32;33902;-59
2021/05/20 11:26:58;;;;;;;6.68;3.05;;;;;;;25.26;39.06;99430.16;4477918;32;34094;-57
2021/05/20 11:29:30;;;;;;;4.62;2.78;;;;;;;25.42;38.86;99425.81;4483250;32;32183;-59
2021/05/20 11:32:24;;;;;;;4.45;2.70;;;;;;;25.58;38.67;99435.06;4479121;32;33772;-58
2021/05/20 11:37:28;;;;;;;4.50;2.42;;;;;;;25.91;38.25;99434.22;4469003;32;34570;-58
2021/05/20 11:39:56;;;;;;;5.37;2.53;;;;;;;26.03;38.09;99426.72;4483909;32;34036;-59
2021/05/20 11:42:33;;;;;;;4.20;2.50;;;;;;;26.16;37.93;99415.44;4483922;32;33994;-59
2021/05/20 11:45:02;;;;;;;4.72;2.37;;;;;;;26.26;37.81;99420.19;4483731;32;33705;-57
2021/05/20 11:47:30;;;;;;;4.00;2.40;;;;;;;26.40;37.66;99428.84;4483823;32;35036;-58
2021/05/20 11:49:58;;;;;;;4.90;2.40;;;;;;;26.52;37.50;99410.41;4483942;32;32881;-58
2021/05/20 11:52:25;;;;;;;3.70;2.33;;;;;;;26.60;37.40;99418.16;4483719;32;33762;-58